Hartford/Springfield (BDL/KBDL)

Information

Location
Hartford, CT
Local Time
20:10 / 8:10 pm
GMT Time
00:10 / 12:10 am
Gates
A9
No FAA reported delays
METAR KBDL 252251Z 02012KT 10SM -RA FEW009 OVC014 09/08 A3008 RMK AO2 SLP185 P0005 T00940083
TAF KBDL 252320Z 2600/2706 04010KT 4SM -SHRA BR OVC010 FM260200 02010KT 4SM -SHRA BR OVC008 FM260800 02009KT 4SM -SHRA BR OVC008 FM261300 02007KT 3SM -RA BR OVC008 FM261600 03006KT 5SM BR VCSH OVC008 FM261900 04005KT P6SM VCSH OVC008 FM262300 03005KT P6SM VCS